Terminal Aerodrome Forecast
Issued by NWS

Home | Current Version | Previous Version | Text Only | Print | Product List | Glossary On
Versions: 1 2 3 4 5 6 7 8 9 10 11 12 13 14 15 16 17 18 19 20 21 22 23
000
FTUS41 KPBZ 240906 AAB
TAFDUJ
TAF AMD
KDUJ 240906Z 2409/2506 VRB03KT 2SM BR SCT080
      TEMPO 2409/2411 3/4SM BR
     FM241300 VRB03KT P6SM BKN080
     FM241500 33008KT P6SM VCSH BKN035
     FM250000 34003KT P6SM SCT080=

USA.gov is the U.S. government's official web portal to all federal, state and local government web resources and services.